Time;durP1;ratioP1;P1;durP2;ratioP2;P2;SDS_P1;SDS_P2;PMS_P1;PMS_P2;Temp;Humidity;BMP_temperature;BMP_pressure;BME280_temperature;BME280_humidity;BME280_pressure;Samples;Min_cycle;Max_cycle;Signal;HPM_P1;HPM_P2
2023/09/13 00:03:27;;;;;;;;;;;24.80;42.20;;;24.43;41.54;100706.78;12132274;19;19923;-85
2023/09/13 00:07:29;;;;;;;;;;;24.80;42.30;;;24.35;41.87;100701.50;12136498;19;20216;-84
2023/09/13 00:11:30;;;;;;;;;;;24.70;42.30;;;24.21;41.51;100688.91;12132069;19;19919;-85
2023/09/13 00:15:32;;;;;;;;;;;24.60;42.20;;;24.17;42.04;100684.91;12137875;19;20833;-85
2023/09/13 00:19:33;;;;;;;;;;;24.50;42.10;;;24.07;42.11;100693.16;12137397;19;19950;-85
2023/09/13 00:23:34;;;;;;;;;;;24.40;42.20;;;24.02;42.00;100707.00;12133498;19;20694;-85
2023/09/13 00:27:36;;;;;;;;;;;24.30;42.30;;;24.00;42.20;100702.84;12140411;19;19918;-85
2023/09/13 00:31:37;;;;;;;;;;;24.30;42.40;;;23.92;42.14;100684.19;12132905;19;21041;-85
2023/09/13 00:35:38;;;;;;;;;;;24.30;42.50;;;23.85;41.87;100682.22;12140737;19;20681;-85
2023/09/13 00:39:40;;;;;;;;;;;24.20;42.50;;;23.82;42.09;100679.91;12134545;19;19934;-85
2023/09/13 00:43:41;;;;;;;;;;;24.20;42.50;;;23.77;42.22;100671.59;12132166;19;20416;-85
2023/09/13 00:47:46;;;;;;;;;;;24.10;42.50;;;23.73;41.88;100678.25;12136959;19;20260;-85
2023/09/13 00:51:49;;;;;;;;;;;24.10;42.60;;;23.64;42.25;100676.59;12137920;19;19926;-84
2023/09/13 00:55:51;;;;;;;;;;;24.00;42.60;;;23.59;41.95;100684.28;12137150;19;19923;-85
2023/09/13 00:59:52;;;;;;;;;;;24.00;42.70;;;23.61;42.12;100693.75;12133611;19;20598;-85
2023/09/13 01:03:55;;;;;;;;;;;23.90;42.70;;;23.60;42.63;100691.25;12135373;19;20486;-84
2023/09/13 01:07:56;;;;;;;;;;;23.90;42.80;;;23.54;42.70;100687.44;12130595;19;20604;-85
2023/09/13 01:11:58;;;;;;;;;;;23.90;42.80;;;23.52;42.24;100672.63;12135152;19;19918;-85
2023/09/13 01:16:24;;;;;;;;;;;23.90;42.90;;;23.53;42.26;100672.47;12134758;19;20801;-84
2023/09/13 01:20:25;;;;;;;;;;;23.90;43.00;;;23.47;42.59;100667.81;12132787;19;20727;-84
2023/09/13 01:24:45;;;;;;;;;;;23.80;42.90;;;23.34;42.50;100652.34;12138368;19;20896;-85
2023/09/13 01:28:47;;;;;;;;;;;23.80;43.00;;;23.35;42.42;100647.84;12133413;19;19930;-85
2023/09/13 01:32:51;;;;;;;;;;;23.80;43.00;;;23.37;42.68;100644.00;12135446;19;20310;-85
2023/09/13 01:36:54;;;;;;;;;;;23.80;43.10;;;23.32;42.91;100618.88;12136345;19;20770;-84
2023/09/13 01:41:04;;;;;;;;;;;23.80;43.10;;;23.29;42.54;100606.72;12127580;19;19934;-85
2023/09/13 01:45:08;;;;;;;;;;;23.60;43.00;;;23.27;42.56;100614.03;12125696;19;20989;-85
2023/09/13 01:49:13;;;;;;;;;;;23.70;43.10;;;23.22;42.88;100613.72;12134538;19;19937;-85
2023/09/13 01:53:15;;;;;;;;;;;23.70;43.10;;;23.25;42.84;100632.06;12132666;19;20298;-85
2023/09/13 01:57:16;;;;;;;;;;;23.70;43.20;;;23.21;43.09;100638.72;12130587;19;19927;-85
2023/09/13 02:01:17;;;;;;;;;;;23.70;43.40;;;23.22;43.18;100675.00;12121160;19;19930;-85
2023/09/13 02:05:19;;;;;;;;;;;23.60;43.40;;;23.08;43.22;100871.00;12131234;19;20006;-86
2023/09/13 02:09:21;;;;;;;;;;;23.60;43.60;;;23.08;43.32;100889.63;12124890;19;19930;-85
2023/09/13 02:13:23;;;;;;;;;;;23.60;44.00;;;23.07;43.41;100887.16;12126622;19;19930;-85
2023/09/13 02:17:25;;;;;;;;;;;23.60;44.20;;;23.07;43.38;100901.31;12129075;19;19922;-85
2023/09/13 02:21:27;;;;;;;;;;;23.60;44.30;;;22.99;43.72;100852.50;12132613;19;21054;-86
2023/09/13 02:25:28;;;;;;;;;;;23.60;44.50;;;23.00;43.73;100780.41;12136964;19;20681;-86
2023/09/13 02:29:30;;;;;;;;;;;23.60;44.90;;;23.07;43.78;100793.91;12138667;19;19919;-88
2023/09/13 02:33:32;;;;;;;;;;;23.60;45.00;;;22.95;43.79;100758.72;12139635;19;20307;-87
2023/09/13 02:37:34;;;;;;;;;;;23.60;44.80;;;23.08;43.41;100784.91;12140886;19;20267;-86
2023/09/13 02:41:36;;;;;;;;;;;23.60;45.00;;;23.09;43.63;100762.63;12135670;19;19922;-86
2023/09/13 02:45:38;;;;;;;;;;;23.60;45.20;;;23.03;43.90;100752.59;12137034;19;19930;-86
2023/09/13 02:49:40;;;;;;;;;;;23.60;45.20;;;23.08;43.91;100721.81;12138607;19;19919;-87
2023/09/13 02:53:41;;;;;;;;;;;23.60;45.90;;;22.96;43.98;100652.06;12135633;19;19923;-87
2023/09/13 02:57:43;;;;;;;;;;;23.50;46.60;;;22.94;44.04;100626.56;12137096;19;20672;-86
2023/09/13 03:01:45;;;;;;;;;;;23.50;47.40;;;22.73;43.99;100590.63;12134376;19;20244;-86
2023/09/13 03:05:48;;;;;;;;;;;23.40;48.20;;;22.76;44.27;100608.09;12138904;19;19919;-86
2023/09/13 03:09:54;;;;;;;;;;;23.30;47.30;;;22.71;44.45;100615.75;12136230;19;20020;-86
2023/09/13 03:13:58;;;;;;;;;;;23.30;46.50;;;22.69;44.41;100601.78;12140812;19;19922;-86
2023/09/13 03:18:00;;;;;;;;;;;23.20;46.60;;;22.72;44.50;100596.94;12139834;19;20192;-86
2023/09/13 03:22:02;;;;;;;;;;;23.20;46.10;;;22.82;44.18;100604.78;12135884;19;19987;-86
2023/09/13 03:26:25;;;;;;;;;;;23.30;46.40;;;22.85;44.59;100611.59;12139198;19;20372;-86
2023/09/13 03:30:28;;;;;;;;;;;23.30;46.40;;;22.86;44.59;100613.25;12136301;19;20241;-86
2023/09/13 03:34:30;;;;;;;;;;;23.30;46.30;;;22.86;44.57;100603.44;12141209;19;20739;-86
2023/09/13 03:38:32;;;;;;;;;;;23.30;46.30;;;22.82;44.59;100586.13;12134779;19;19923;-86
2023/09/13 03:42:34;;;;;;;;;;;23.30;46.10;;;22.80;44.83;100571.31;12138245;19;20724;-86
2023/09/13 03:46:37;;;;;;;;;;;23.30;46.20;;;22.84;44.65;100557.50;12137895;19;20021;-86
2023/09/13 03:50:38;;;;;;;;;;;23.30;46.10;;;22.85;44.92;100539.72;12134153;19;20651;-86
2023/09/13 03:54:40;;;;;;;;;;;23.40;46.00;;;22.93;45.01;100543.19;12137494;19;19926;-86
2023/09/13 03:58:42;;;;;;;;;;;23.40;46.00;;;22.87;44.90;100525.22;12142032;19;19933;-86
2023/09/13 04:02:43;;;;;;;;;;;23.50;46.00;;;22.94;44.89;100541.34;12149229;19;19962;-87
2023/09/13 04:06:45;;;;;;;;;;;23.50;46.00;;;22.95;44.94;100538.53;12149426;19;19927;-87
2023/09/13 04:10:46;;;;;;;;;;;23.50;46.00;;;22.96;44.91;100553.53;12147371;19;19926;-87
2023/09/13 04:14:47;;;;;;;;;;;23.50;45.90;;;23.00;44.93;100559.31;12149498;19;19933;-87
2023/09/13 04:18:49;;;;;;;;;;;23.50;45.90;;;22.99;44.95;100560.34;12149156;19;20627;-87
2023/09/13 04:22:51;;;;;;;;;;;23.50;45.90;;;23.04;45.26;100562.50;12146848;19;19923;-87
2023/09/13 04:26:53;;;;;;;;;;;23.50;45.90;;;22.97;45.16;100549.84;12152266;19;20284;-87
2023/09/13 04:30:58;;;;;;;;;;;23.60;46.00;;;22.90;45.14;100556.84;12145942;19;19926;-87
2023/09/13 04:35:00;;;;;;;;;;;23.50;45.80;;;22.99;45.40;100576.31;12145224;19;19926;-87
2023/09/13 04:39:02;;;;;;;;;;;23.50;45.80;;;22.94;45.23;100568.78;12152470;19;20226;-87
2023/09/13 04:43:07;;;;;;;;;;;23.50;45.90;;;22.92;45.20;100562.81;12147245;19;19943;-85
2023/09/13 04:47:09;;;;;;;;;;;23.50;45.80;;;22.88;45.33;100574.81;12152909;19;20378;-85
2023/09/13 04:51:11;;;;;;;;;;;23.40;45.80;;;22.78;45.25;100579.47;12149417;19;19911;-85
2023/09/13 04:55:18;;;;;;;;;;;23.40;45.80;;;22.79;45.38;100577.63;12151766;19;20763;-85
2023/09/13 04:59:24;;;;;;;;;;;23.30;45.90;;;22.79;45.44;100602.47;12148573;19;20267;-85
2023/09/13 05:03:26;;;;;;;;;;;23.30;45.90;;;22.81;45.13;100611.09;12144547;19;19934;-85
2023/09/13 05:07:27;;;;;;;;;;;23.30;46.00;;;22.81;45.69;100610.25;12149763;19;19946;-85
2023/09/13 05:11:29;;;;;;;;;;;23.30;46.00;;;22.78;45.34;100611.41;12144794;19;20214;-85
2023/09/13 05:15:30;;;;;;;;;;;23.30;46.00;;;22.75;45.33;100611.75;12152334;19;20790;-85
2023/09/13 05:19:32;;;;;;;;;;;23.30;46.00;;;22.75;45.67;100606.44;12152829;19;20678;-85
2023/09/13 05:23:33;;;;;;;;;;;23.30;46.10;;;22.76;45.33;100613.41;12147338;19;19922;-85
2023/09/13 05:27:35;;;;;;;;;;;23.30;46.20;;;22.78;45.34;100623.91;12153664;19;19933;-85
2023/09/13 05:31:37;;;;;;;;;;;23.30;46.10;;;22.78;45.73;100631.91;12148127;19;20603;-85
2023/09/13 05:35:39;;;;;;;;;;;23.30;46.10;;;22.74;45.85;100620.75;12154764;19;20659;-85
2023/09/13 05:39:41;;;;;;;;;;;23.30;46.20;;;22.62;45.89;100616.75;12154073;19;20227;-84
2023/09/13 05:43:43;;;;;;;;;;;23.30;46.10;;;22.57;45.80;100614.56;12152194;19;20625;-84
2023/09/13 05:47:47;;;;;;;;;;;23.30;46.20;;;22.60;45.74;100624.91;12153206;19;19941;-84
2023/09/13 05:51:49;;;;;;;;;;;23.20;46.20;;;22.68;45.54;100642.69;12150150;19;20739;-85
2023/09/13 05:55:51;;;;;;;;;;;23.20;46.20;;;22.66;45.76;100634.06;12153076;19;20698;-85
2023/09/13 05:59:53;;;;;;;;;;;23.20;46.20;;;22.46;45.63;100612.25;12153134;19;19930;-84
2023/09/13 06:03:54;;;;;;;;;;;23.20;46.40;;;22.57;45.97;100641.19;12148040;19;20294;-84
2023/09/13 06:07:56;;;;;;;;;;;23.10;46.50;;;22.60;45.95;100640.03;12147094;19;19942;-85
2023/09/13 06:11:58;;;;;;;;;;;23.20;46.80;;;22.58;46.10;100637.56;12154668;19;19915;-85
2023/09/13 06:15:59;;;;;;;;;;;23.20;46.90;;;22.60;46.21;100634.72;12149088;19;19927;-85
2023/09/13 06:20:00;;;;;;;;;;;23.20;46.90;;;22.61;46.11;100633.72;12144842;19;20360;-84
2023/09/13 06:24:02;;;;;;;;;;;23.10;46.90;;;22.60;46.20;100635.56;12148471;19;19950;-84
2023/09/13 06:28:04;;;;;;;;;;;23.10;47.10;;;22.59;46.39;100633.06;12147649;19;20714;-84
2023/09/13 06:32:06;;;;;;;;;;;23.10;47.10;;;22.54;45.98;100618.41;12151878;19;19954;-85
2023/09/13 06:36:08;;;;;;;;;;;23.10;47.10;;;22.57;46.16;100629.72;12149877;19;19979;-84
2023/09/13 06:40:09;;;;;;;;;;;23.10;47.40;;;22.64;46.46;100631.56;12148729;19;19936;-84
2023/09/13 06:44:11;;;;;;;;;;;23.20;47.30;;;22.67;46.59;100639.22;12155909;19;20259;-84
2023/09/13 06:48:13;;;;;;;;;;;23.20;47.50;;;22.65;46.68;100633.22;12153844;19;20267;-84
2023/09/13 06:52:15;;;;;;;;;;;23.20;48.20;;;22.71;46.35;100642.38;12143772;19;20272;-84
2023/09/13 06:56:16;;;;;;;;;;;23.20;47.90;;;22.73;46.85;100641.19;12143199;19;19933;-84
2023/09/13 07:00:18;;;;;;;;;;;23.30;47.90;;;22.76;46.71;100645.38;12133699;19;19922;-85
2023/09/13 07:04:20;;;;;;;;;;;23.30;47.90;;;22.77;46.86;100636.41;12127718;19;20712;-84
2023/09/13 07:08:21;;;;;;;;;;;23.40;48.10;;;22.89;46.92;100660.84;12132960;19;19926;-84
2023/09/13 07:12:23;;;;;;;;;;;23.40;48.30;;;22.91;46.86;100669.50;12136773;19;19922;-84
2023/09/13 07:16:25;;;;;;;;;;;23.50;48.30;;;22.95;46.81;100671.69;12136365;19;20483;-83
2023/09/13 07:20:26;;;;;;;;;;;23.50;48.20;;;22.97;46.98;100668.88;12140539;19;19945;-84
2023/09/13 07:24:28;;;;;;;;;;;23.60;48.30;;;23.01;47.21;100677.34;12134625;19;19926;-83
2023/09/13 07:28:30;;;;;;;;;;;23.60;48.50;;;23.03;47.17;100678.84;12139658;19;20788;-83
2023/09/13 07:32:32;;;;;;;;;;;23.60;48.00;;;23.06;47.17;100678.53;12145072;19;20241;-83
2023/09/13 07:36:33;;;;;;;;;;;23.70;48.20;;;23.12;47.00;100690.34;12149436;19;19952;-83
2023/09/13 07:40:36;;;;;;;;;;;23.70;48.20;;;23.13;47.08;100689.34;12146718;19;20451;-83
2023/09/13 07:44:38;;;;;;;;;;;23.70;48.60;;;23.11;47.04;100691.34;12153277;19;19922;-83
2023/09/13 07:48:40;;;;;;;;;;;23.80;48.80;;;23.12;47.05;100683.19;12149815;19;20758;-83
2023/09/13 07:52:41;;;;;;;;;;;23.70;48.70;;;23.26;47.34;100703.00;12148444;19;20654;-83
2023/09/13 07:56:43;;;;;;;;;;;23.80;48.40;;;23.30;47.26;100712.31;12150476;19;21073;-83
2023/09/13 08:00:45;;;;;;;;;;;23.80;48.40;;;23.35;47.21;100711.81;12144954;19;19943;-83
2023/09/13 08:04:49;;;;;;;;;;;23.90;48.60;;;23.42;47.42;100713.63;12149972;19;19930;-83
2023/09/13 08:08:52;;;;;;;;;;;24.00;49.50;;;23.46;47.36;100727.44;12145675;19;19927;-83
2023/09/13 08:12:54;;;;;;;;;;;24.00;48.40;;;23.48;47.26;100729.94;12149600;19;19923;-83
2023/09/13 08:16:55;;;;;;;;;;;24.10;48.40;;;23.33;47.64;100706.66;12148386;19;19919;-83
2023/09/13 08:20:57;;;;;;;;;;;24.10;48.50;;;23.41;47.83;100719.97;12141693;19;20415;-83
2023/09/13 08:24:58;;;;;;;;;;;24.20;48.30;;;23.47;47.70;100734.47;12143583;19;20780;-83
2023/09/13 08:29:03;;;;;;;;;;;24.10;48.20;;;23.47;47.27;100744.28;12144412;19;19934;-83
2023/09/13 08:33:06;;;;;;;;;;;24.10;48.80;;;23.44;47.66;100740.13;12146897;19;20678;-83
2023/09/13 08:37:08;;;;;;;;;;;24.10;48.50;;;23.39;47.81;100715.81;12144537;19;20787;-83
2023/09/13 08:41:09;;;;;;;;;;;24.10;48.60;;;23.48;47.55;100729.94;12141104;19;19914;-83
2023/09/13 08:45:12;;;;;;;;;;;24.20;49.00;;;23.57;47.62;100737.78;12139377;19;19919;-83
2023/09/13 08:49:16;;;;;;;;;;;24.20;49.20;;;23.64;47.94;100733.41;12140859;19;19919;-83
2023/09/13 08:53:18;;;;;;;;;;;24.30;48.60;;;23.68;47.66;100728.56;12142470;19;20659;-82
2023/09/13 08:57:20;;;;;;;;;;;24.40;48.80;;;23.82;48.21;100743.91;12141545;19;19929;-82
2023/09/13 09:01:24;;;;;;;;;;;24.50;49.20;;;23.88;48.17;100752.25;12138702;19;19969;-82
2023/09/13 09:05:27;;;;;;;;;;;24.60;48.80;;;23.93;47.99;100747.22;12138962;19;19927;-82
2023/09/13 09:09:31;;;;;;;;;;;24.70;49.00;;;24.04;47.85;100753.03;12141300;19;19923;-82
2023/09/13 09:13:33;;;;;;;;;;;24.70;49.40;;;24.06;48.03;100752.81;12138250;19;19927;-81
2023/09/13 09:17:35;;;;;;;;;;;24.80;48.80;;;24.15;47.89;100775.81;12130220;19;19926;-82
2023/09/13 09:21:40;;;;;;;;;;;24.90;48.50;;;24.11;47.85;100769.16;12122671;19;19943;-82
2023/09/13 09:25:44;;;;;;;;;;;24.90;48.30;;;24.07;47.86;100774.00;12125521;19;19956;-82
2023/09/13 09:29:46;;;;;;;;;;;24.90;48.30;;;24.07;48.30;100787.34;12128437;19;20307;-82
2023/09/13 09:33:48;;;;;;;;;;;24.80;48.60;;;24.13;48.09;100798.34;12128615;19;20231;-84
2023/09/13 09:37:49;;;;;;;;;;;24.80;48.20;;;24.10;48.29;100788.84;12124765;19;20659;-83
2023/09/13 09:41:57;;;;;;;;;;;24.80;48.30;;;24.13;48.16;100787.69;12127743;19;19926;-83
2023/09/13 09:45:59;;;;;;;;;;;24.80;48.20;;;24.18;48.20;100796.00;12128339;19;21565;-84
2023/09/13 09:50:03;;;;;;;;;;;24.90;48.70;;;24.24;48.15;100789.97;12120614;19;20274;-85
2023/09/13 09:54:05;;;;;;;;;;;24.90;48.90;;;24.27;48.22;100795.78;12133173;19;19923;-84
2023/09/13 09:58:07;;;;;;;;;;;25.00;48.40;;;24.03;48.32;100762.03;12135829;19;19950;-85
2023/09/13 10:02:09;;;;;;;;;;;25.00;48.80;;;24.28;48.36;100808.16;12120780;19;19918;-85
2023/09/13 10:06:12;;;;;;;;;;;25.00;48.40;;;24.27;48.08;100801.13;12121526;19;19930;-85
2023/09/13 10:10:30;;;;;;;;;;;25.00;48.10;;;24.14;48.34;100792.84;12132499;19;19941;-85
2023/09/13 10:14:32;;;;;;;;;;;25.00;48.30;;;24.17;48.16;100797.00;12139125;19;20263;-85
2023/09/13 10:18:42;;;;;;;;;;;24.90;48.20;;;24.16;48.22;100809.50;12134701;19;20703;-84
2023/09/13 10:22:46;;;;;;;;;;;24.90;48.20;;;24.18;48.17;100807.50;12124241;19;19926;-84
2023/09/13 10:26:52;;;;;;;;;;;24.90;48.20;;;24.20;48.31;100815.34;12122050;19;20757;-85
2023/09/13 10:30:58;;;;;;;;;;;24.90;48.20;;;24.21;47.99;100828.50;12127113;19;19943;-85
2023/09/13 10:35:01;;;;;;;;;;;24.90;48.10;;;24.26;48.43;100841.34;12131242;19;19930;-85
2023/09/13 10:39:15;;;;;;;;;;;24.90;48.30;;;24.20;48.34;100848.19;12127717;19;19922;-85
2023/09/13 10:43:17;;;;;;;;;;;24.90;48.00;;;24.15;48.27;100837.22;12120072;19;19926;-85
2023/09/13 10:47:19;;;;;;;;;;;24.90;48.00;;;24.17;48.30;100840.53;12121933;19;19926;-85
2023/09/13 10:51:21;;;;;;;;;;;24.90;48.10;;;24.27;48.31;100875.03;12129170;19;19962;-85
2023/09/13 10:55:24;;;;;;;;;;;24.90;48.10;;;24.20;48.48;100853.53;12134975;19;19978;-84
2023/09/13 10:59:25;;;;;;;;;;;25.00;48.00;;;24.22;48.33;100854.22;12126603;19;19935;-85
2023/09/13 11:03:27;;;;;;;;;;;24.90;48.10;;;24.29;48.44;100873.84;12119561;19;19911;-84
2023/09/13 11:07:37;;;;;;;;;;;24.90;48.10;;;24.31;48.17;100872.88;12122513;19;20278;-84
2023/09/13 11:11:38;;;;;;;;;;;24.90;48.30;;;24.34;48.38;100872.53;12130292;19;20298;-85
2023/09/13 11:15:50;;;;;;;;;;;25.00;48.70;;;24.33;48.41;100871.69;12138759;19;20203;-85
2023/09/13 11:19:52;;;;;;;;;;;25.00;48.50;;;24.44;48.35;100886.56;12132474;19;19923;-84
2023/09/13 11:23:54;;;;;;;;;;;25.00;48.50;;;24.42;48.65;100878.66;12122342;19;19926;-84
2023/09/13 11:27:56;;;;;;;;;;;25.10;48.50;;;24.53;48.46;100900.69;12120997;19;19929;-84
2023/09/13 11:32:03;;;;;;;;;;;25.10;48.50;;;24.54;48.57;100903.19;12133958;19;20458;-84
2023/09/13 11:36:06;;;;;;;;;;;25.10;48.40;;;24.51;48.29;100892.84;12133951;19;19922;-85
2023/09/13 11:40:13;;;;;;;;;;;25.20;48.60;;;24.61;48.68;100914.03;12122676;19;19922;-85
2023/09/13 11:44:15;;;;;;;;;;;25.20;48.50;;;24.26;48.28;100844.84;12113152;19;20780;-84
2023/09/13 11:48:26;;;;;;;;;;;25.30;48.80;;;24.74;48.68;100914.31;12117497;19;19927;-85
2023/09/13 11:52:48;;;;;;;;;;;25.40;48.60;;;24.74;48.73;100900.97;12133179;19;19923;-84
2023/09/13 11:56:52;;;;;;;;;;;25.40;48.60;;;24.81;48.50;100901.09;12130678;19;19919;-84
2023/09/13 12:00:55;;;;;;;;;;;25.50;48.90;;;24.87;48.11;100908.41;12117428;19;20302;-84
2023/09/13 12:04:58;;;;;;;;;;;25.60;48.80;;;24.95;48.73;100911.03;12113374;19;19945;-84
2023/09/13 12:08:59;;;;;;;;;;;25.70;48.70;;;25.02;48.33;100917.34;12117405;19;19939;-84
2023/09/13 12:13:02;;;;;;;;;;;25.70;48.80;;;25.00;48.75;100913.19;12121090;19;20786;-84
2023/09/13 12:17:03;;;;;;;;;;;25.80;48.70;;;25.03;48.37;100916.34;12118239;19;19930;-84
2023/09/13 12:21:06;;;;;;;;;;;25.80;48.80;;;25.05;48.54;100930.38;12121064;19;19947;-84
2023/09/13 12:25:12;;;;;;;;;;;25.90;48.50;;;25.15;48.56;100957.75;12127657;19;19964;-83
2023/09/13 12:29:14;;;;;;;;;;;25.90;48.50;;;25.16;48.59;100961.25;12122650;19;19934;-84
2023/09/13 12:33:15;;;;;;;;;;;25.90;48.60;;;25.07;48.79;100952.41;12122602;19;19931;-84
2023/09/13 12:37:17;;;;;;;;;;;25.90;48.60;;;25.15;48.75;100954.25;12125942;19;20800;-81
2023/09/13 12:41:20;;;;;;;;;;;25.90;48.80;;;25.19;48.56;100960.91;12122222;19;19923;-82
2023/09/13 12:45:22;;;;;;;;;;;25.90;49.00;;;25.20;48.36;100964.44;12130562;19;20263;-83
2023/09/13 12:49:24;;;;;;;;;;;25.90;49.10;;;25.19;48.51;100968.91;12125074;19;20013;-84
2023/09/13 12:53:29;;;;;;;;;;;25.80;49.10;;;25.15;48.22;100964.94;12139155;19;19930;-83
2023/09/13 12:57:31;;;;;;;;;;;25.80;48.90;;;25.06;48.60;100965.94;12136038;19;20291;-83
2023/09/13 13:01:35;;;;;;;;;;;25.80;48.90;;;25.10;48.42;100989.47;12122579;19;19926;-83
2023/09/13 13:05:44;;;;;;;;;;;25.70;48.70;;;25.04;48.33;100987.50;12127025;19;20271;-84
2023/09/13 13:09:50;;;;;;;;;;;25.70;48.70;;;24.95;48.66;100992.06;12130614;19;19931;-84
2023/09/13 13:13:51;;;;;;;;;;;25.60;48.50;;;24.84;48.29;100978.22;12137990;19;19940;-84
2023/09/13 13:17:53;;;;;;;;;;;25.50;48.60;;;24.80;48.32;100982.25;12140265;19;19926;-84
2023/09/13 13:21:54;;;;;;;;;;;25.40;48.60;;;24.68;48.72;100968.41;12131734;19;19947;-84
2023/09/13 13:25:56;;;;;;;;;;;25.30;48.80;;;24.68;48.51;100973.75;12136313;19;20803;-84
2023/09/13 13:29:57;;;;;;;;;;;25.20;48.90;;;24.60;48.52;100966.63;12135076;19;20771;-84
2023/09/13 13:33:59;;;;;;;;;;;25.10;48.80;;;24.56;48.48;100973.28;12136480;19;19915;-85
2023/09/13 13:38:00;;;;;;;;;;;25.10;48.90;;;24.53;48.60;100959.44;12134971;19;19941;-85
2023/09/13 13:42:03;;;;;;;;;;;25.00;49.00;;;24.50;48.90;100971.28;12130225;19;19922;-84
2023/09/13 13:46:13;;;;;;;;;;;25.00;49.20;;;24.51;48.66;100989.81;12129815;19;21824;-85
2023/09/13 13:50:15;;;;;;;;;;;25.00;49.10;;;24.47;48.45;100977.81;12129838;19;19926;-85
2023/09/13 13:54:18;;;;;;;;;;;25.00;49.00;;;24.43;48.52;100971.09;12131554;19;19938;-84
2023/09/13 13:58:20;;;;;;;;;;;24.90;49.20;;;24.39;48.70;100968.97;12131023;19;20774;-84
2023/09/13 14:02:21;;;;;;;;;;;24.90;49.20;;;24.37;48.76;100970.94;12130737;19;19919;-84
2023/09/13 14:06:23;;;;;;;;;;;24.80;49.30;;;24.39;48.99;100958.28;12133561;19;19952;-84
2023/09/13 14:10:25;;;;;;;;;;;24.80;49.30;;;24.38;48.62;100945.91;12130767;19;19923;-84
2023/09/13 14:14:28;;;;;;;;;;;24.80;49.40;;;24.43;49.04;100955.06;12130229;19;19929;-84
2023/09/13 14:18:29;;;;;;;;;;;24.90;49.60;;;24.47;49.10;100944.94;12127564;19;19925;-84
2023/09/13 14:22:31;;;;;;;;;;;24.90;49.60;;;24.52;49.09;100950.59;12131721;19;20223;-84
2023/09/13 14:26:34;;;;;;;;;;;25.00;49.80;;;24.55;48.86;100947.59;12128277;19;19919;-84
2023/09/13 14:30:35;;;;;;;;;;;25.10;49.90;;;24.66;49.06;100962.41;12125386;19;20330;-84
2023/09/13 14:34:39;;;;;;;;;;;25.10;49.90;;;24.67;49.09;100956.88;12129231;19;20370;-84
2023/09/13 14:38:41;;;;;;;;;;;25.10;49.90;;;24.73;49.35;100961.56;12126762;19;19922;-84
2023/09/13 14:42:42;;;;;;;;;;;25.20;50.10;;;24.79;49.39;100967.19;12126909;19;20018;-84
2023/09/13 14:46:44;;;;;;;;;;;25.30;50.10;;;24.75;49.45;100955.22;12130277;19;19929;-84
2023/09/13 14:50:45;;;;;;;;;;;25.40;50.00;;;24.84;49.10;100970.19;12122539;19;19923;-85
2023/09/13 14:54:47;;;;;;;;;;;25.40;50.40;;;24.83;49.08;100960.53;12128785;19;20527;-84
2023/09/13 14:58:48;;;;;;;;;;;25.50;50.00;;;24.94;49.41;100979.69;12122138;19;19955;-84
2023/09/13 15:02:50;;;;;;;;;;;25.50;50.00;;;24.89;49.11;100962.50;12124305;19;19923;-84
2023/09/13 15:06:52;;;;;;;;;;;25.60;50.00;;;24.99;49.30;100983.69;12121946;19;20666;-84
2023/09/13 15:10:54;;;;;;;;;;;25.60;50.00;;;24.95;49.07;100983.19;12116622;19;19926;-84
2023/09/13 15:14:58;;;;;;;;;;;25.60;50.10;;;24.97;49.33;100983.84;12122266;19;20990;-84
2023/09/13 15:19:00;;;;;;;;;;;25.60;49.90;;;25.05;49.05;100999.84;12123435;19;20346;-84
2023/09/13 15:23:03;;;;;;;;;;;25.60;49.80;;;24.98;49.11;100987.34;12118419;19;19926;-84
2023/09/13 15:27:04;;;;;;;;;;;25.70;49.70;;;25.04;49.36;101013.41;12124069;19;21025;-84
2023/09/13 15:31:06;;;;;;;;;;;25.70;49.70;;;25.00;49.22;101004.88;12117860;19;19922;-84
2023/09/13 15:35:08;;;;;;;;;;;25.70;49.70;;;25.05;49.36;101015.06;12124480;19;20042;-84
2023/09/13 15:39:11;;;;;;;;;;;25.70;49.60;;;25.03;49.47;101014.38;12122192;19;19923;-84
2023/09/13 15:43:12;;;;;;;;;;;25.60;49.60;;;25.01;49.37;101011.06;12119986;19;20970;-83
2023/09/13 15:47:14;;;;;;;;;;;25.70;49.60;;;25.01;49.58;101022.59;12112224;19;19971;-84
2023/09/13 15:51:16;;;;;;;;;;;25.60;49.70;;;25.01;49.12;101025.28;12110112;19;19923;-84
2023/09/13 15:55:18;;;;;;;;;;;25.60;49.50;;;24.91;49.59;101012.09;12126879;19;19926;-84
2023/09/13 15:59:20;;;;;;;;;;;25.60;49.50;;;24.98;49.61;101032.78;12121525;19;20697;-84
2023/09/13 16:03:22;;;;;;;;;;;25.60;49.50;;;24.94;49.21;101041.13;12121133;19;19933;-84
2023/09/13 16:07:23;;;;;;;;;;;25.50;49.40;;;24.92;49.20;101039.63;12124202;19;19919;-84
2023/09/13 16:11:25;;;;;;;;;;;25.50;49.80;;;24.90;49.18;101053.19;12125217;19;19936;-83
2023/09/13 16:15:27;;;;;;;;;;;25.50;49.50;;;24.81;49.23;101045.34;12127436;19;19930;-83
2023/09/13 16:19:28;;;;;;;;;;;25.40;49.30;;;24.76;49.60;101043.16;12126489;19;19929;-84
2023/09/13 16:23:30;;;;;;;;;;;25.40;49.50;;;24.78;49.24;101043.00;12126614;19;20670;-84
2023/09/13 16:27:32;;;;;;;;;;;25.40;49.40;;;24.64;49.52;101032.03;12130546;19;19921;-84
2023/09/13 16:31:33;;;;;;;;;;;25.30;49.30;;;24.68;49.61;101052.06;12124405;19;20821;-84
2023/09/13 16:35:34;;;;;;;;;;;25.30;49.30;;;24.66;49.35;101061.25;12131112;19;19995;-84
2023/09/13 16:39:36;;;;;;;;;;;25.20;49.30;;;24.63;49.52;101061.59;12134776;19;20937;-84
2023/09/13 16:43:37;;;;;;;;;;;25.10;49.30;;;24.51;49.19;101048.53;12133929;19;19934;-84
2023/09/13 16:47:39;;;;;;;;;;;25.10;49.40;;;24.58;49.39;101063.91;12143362;19;20838;-84
2023/09/13 16:51:41;;;;;;;;;;;25.10;49.50;;;24.53;49.42;101058.25;12135642;19;20244;-84
2023/09/13 16:55:42;;;;;;;;;;;25.10;49.60;;;24.40;49.64;101051.53;12140116;19;19942;-83
2023/09/13 16:59:44;;;;;;;;;;;25.10;49.70;;;24.53;49.59;101072.44;12120287;19;19927;-84
2023/09/13 17:03:48;;;;;;;;;;;25.00;49.60;;;24.43;49.44;101058.38;12115484;19;19922;-83
2023/09/13 17:07:49;;;;;;;;;;;25.00;49.60;;;24.47;49.68;101073.09;12130077;19;19918;-85
2023/09/13 17:11:53;;;;;;;;;;;25.00;49.70;;;24.44;49.69;101068.09;12135194;19;20207;-85
2023/09/13 17:15:54;;;;;;;;;;;25.00;49.70;;;24.43;49.72;101077.06;12140691;19;20222;-85
2023/09/13 17:19:56;;;;;;;;;;;25.00;49.80;;;24.40;49.49;101080.06;12135420;19;19923;-85
2023/09/13 17:23:57;;;;;;;;;;;25.00;49.80;;;24.40;49.29;101088.91;12134740;19;19923;-85
2023/09/13 17:27:58;;;;;;;;;;;25.00;49.90;;;24.40;49.39;101093.41;12137767;19;19933;-85
2023/09/13 17:32:00;;;;;;;;;;;24.90;49.90;;;24.41;49.36;101105.75;12134595;19;19926;-85
2023/09/13 17:36:02;;;;;;;;;;;24.90;49.90;;;24.34;49.49;101100.25;12140094;19;20185;-85
2023/09/13 17:40:05;;;;;;;;;;;24.90;49.90;;;24.33;49.42;101103.06;12142938;19;19919;-84
2023/09/13 17:44:07;;;;;;;;;;;24.90;49.90;;;24.34;49.72;101115.44;12136092;19;20197;-85
2023/09/13 17:48:08;;;;;;;;;;;24.80;50.00;;;24.32;49.36;101117.44;12139221;19;19935;-85
2023/09/13 17:52:10;;;;;;;;;;;24.80;50.00;;;24.30;49.80;101114.91;12141320;19;19923;-85
2023/09/13 17:56:12;;;;;;;;;;;24.80;50.10;;;24.24;49.90;101116.41;12144895;19;20268;-84
2023/09/13 18:00:13;;;;;;;;;;;24.80;50.10;;;24.24;49.88;101127.09;12139243;19;20688;-85
2023/09/13 18:04:15;;;;;;;;;;;24.70;50.10;;;24.13;49.74;101127.41;12135190;19;19927;-84
2023/09/13 18:08:16;;;;;;;;;;;24.70;50.30;;;24.18;49.90;101148.28;12142897;19;20720;-85
2023/09/13 18:12:18;;;;;;;;;;;24.70;50.40;;;23.99;49.47;101128.88;12144975;19;20255;-85